Time;durP1;ratioP1;P1;durP2;ratioP2;P2;SDS_P1;SDS_P2;PMS_P1;PMS_P2;Temp;Humidity;BMP_temperature;BMP_pressure;BME280_temperature;BME280_humidity;BME280_pressure;Samples;Min_cycle;Max_cycle;Signal;HPM_P1;HPM_P2
2023/06/13 00:00:44;;;;;;;12.40;11.20;;;;;;;18.85;100.00;100486.56;5068595;28;20032;-79
2023/06/13 00:03:13;;;;;;;14.77;10.77;;;;;;;18.83;100.00;100494.78;5082204;28;20028;-78
2023/06/13 00:05:41;;;;;;;14.05;11.18;;;;;;;18.84;100.00;100491.06;5067941;28;20039;-79
2023/06/13 00:08:07;;;;;;;10.60;9.55;;;;;;;18.81;100.00;100486.13;5061015;28;20031;-79
2023/06/13 00:10:33;;;;;;;10.50;9.25;;;;;;;18.84;100.00;100488.41;5061560;28;20032;-78
2023/06/13 00:12:59;;;;;;;11.85;10.75;;;;;;;18.86;100.00;100496.22;5089838;28;20523;-82
2023/06/13 00:15:26;;;;;;;12.93;11.27;;;;;;;18.84;100.00;100495.63;5066712;28;20032;-82
2023/06/13 00:17:53;;;;;;;10.55;9.65;;;;;;;18.84;100.00;100491.06;5058541;28;20035;-79
2023/06/13 00:20:19;;;;;;;11.88;9.60;;;;;;;18.85;100.00;100483.88;5080382;28;20106;-79
2023/06/13 00:22:45;;;;;;;10.63;9.52;;;;;;;18.87;100.00;100486.34;5095504;28;20461;-82
2023/06/13 00:25:10;;;;;;;10.02;9.13;;;;;;;18.88;100.00;100485.31;5053286;28;20042;-82
2023/06/13 00:27:36;;;;;;;11.40;10.32;;;;;;;18.89;100.00;100490.47;5086714;28;20042;-79
2023/06/13 00:30:02;;;;;;;11.88;10.77;;;;;;;18.87;100.00;100481.00;5091768;28;20028;-79
2023/06/13 00:32:31;;;;;;;11.35;10.23;;;;;;;18.84;100.00;100491.06;5077549;28;20080;-78
2023/06/13 00:34:56;;;;;;;12.88;11.00;;;;;;;18.78;100.00;100491.03;5086282;28;20044;-79
2023/06/13 00:37:22;;;;;;;11.80;10.60;;;;;;;18.74;100.00;100485.28;5083298;28;20035;-79
2023/06/13 00:39:48;;;;;;;11.60;10.35;;;;;;;18.71;100.00;100489.16;5060825;28;20049;-79
2023/06/13 00:42:14;;;;;;;10.77;9.77;;;;;;;18.68;100.00;100480.72;5075675;28;20035;-79
2023/06/13 00:44:39;;;;;;;10.88;9.88;;;;;;;18.66;100.00;100488.94;5094575;28;20039;-79
2023/06/13 00:47:06;;;;;;;10.88;9.73;;;;;;;18.60;100.00;100477.16;5017667;28;20120;-79
2023/06/13 00:49:32;;;;;;;11.15;10.05;;;;;;;18.59;100.00;100475.50;5054479;28;20392;-79
2023/06/13 00:52:04;;;;;;;9.60;8.70;;;;;;;18.64;100.00;100476.75;5064314;28;20054;-78
2023/06/13 00:54:31;;;;;;;12.00;10.90;;;;;;;18.62;100.00;100468.13;5053173;28;20035;-78
2023/06/13 00:56:58;;;;;;;11.60;9.85;;;;;;;18.64;100.00;100474.91;5071650;28;20132;-83
2023/06/13 00:59:24;;;;;;;10.52;9.40;;;;;;;18.62;100.00;100478.81;5039344;28;20036;-82
2023/06/13 01:01:52;;;;;;;10.23;9.23;;;;;;;18.58;100.00;100478.38;5044948;28;20043;-79
2023/06/13 01:04:19;;;;;;;12.50;9.63;;;;;;;18.56;100.00;100473.22;5082622;28;20043;-79
2023/06/13 01:06:45;;;;;;;11.23;9.70;;;;;;;18.54;100.00;100479.81;5050876;28;20039;-79
2023/06/13 01:09:13;;;;;;;10.95;9.50;;;;;;;18.50;100.00;100463.31;5055183;28;20035;-79
2023/06/13 01:12:21;;;;;;;16.45;10.05;;;;;;;18.50;100.00;100459.78;5054444;28;20043;-79
2023/06/13 01:15:17;;;;;;;10.57;9.55;;;;;;;18.47;100.00;100469.84;5061530;28;20025;-80
2023/06/13 01:17:49;;;;;;;10.98;9.13;;;;;;;18.41;100.00;100462.63;5031910;28;20040;-79
2023/06/13 01:20:17;;;;;;;11.30;10.02;;;;;;;18.38;100.00;100454.97;5075376;28;20079;-79
2023/06/13 01:22:54;;;;;;;11.20;10.02;;;;;;;18.33;100.00;100460.13;5057402;28;20115;-82
2023/06/13 01:25:37;;;;;;;12.40;10.90;;;;;;;18.29;100.00;100451.66;5055228;28;20032;-82
2023/06/13 01:28:06;;;;;;;11.15;10.15;;;;;;;18.19;100.00;100448.47;5064040;28;20392;-78
2023/06/13 01:30:34;;;;;;;12.20;10.30;;;;;;;18.15;100.00;100452.56;5040073;28;20386;-79
2023/06/13 01:33:02;;;;;;;10.93;9.77;;;;;;;18.10;100.00;100448.59;5060272;28;20043;-79
2023/06/13 01:35:30;;;;;;;11.77;9.90;;;;;;;18.03;100.00;100441.56;5054033;28;20169;-78
2023/06/13 01:37:56;;;;;;;12.05;10.65;;;;;;;17.96;100.00;100450.34;5067706;28;20119;-78
2023/06/13 01:40:22;;;;;;;10.13;9.13;;;;;;;17.91;100.00;100436.75;5083166;28;20060;-79
2023/06/13 01:42:47;;;;;;;11.68;10.45;;;;;;;17.93;100.00;100437.34;5056994;28;20478;-79
2023/06/13 01:45:13;;;;;;;10.73;9.68;;;;;;;17.98;100.00;100436.78;5058740;28;20036;-79
2023/06/13 01:47:54;;;;;;;10.63;9.63;;;;;;;18.02;100.00;100440.72;5039253;28;20044;-79
2023/06/13 01:50:24;;;;;;;10.85;8.85;;;;;;;18.03;100.00;100434.34;5079265;28;20040;-79
2023/06/13 01:53:19;;;;;;;16.80;10.55;;;;;;;18.06;100.00;100428.59;5027896;28;20047;-79
2023/06/13 01:55:53;;;;;;;10.25;9.18;;;;;;;18.10;100.00;100429.88;5028473;28;20036;-79
2023/06/13 01:58:26;;;;;;;12.27;9.07;;;;;;;18.14;100.00;100429.53;5041169;28;20048;-78
2023/06/13 02:00:57;;;;;;;14.45;9.30;;;;;;;18.10;100.00;100437.91;5035867;28;20058;-79
2023/06/13 02:03:24;;;;;;;11.05;9.55;;;;;;;18.06;100.00;100425.13;5034797;28;20044;-79
2023/06/13 02:05:51;;;;;;;11.95;9.30;;;;;;;18.02;100.00;100426.50;5063953;28;20034;-78
2023/06/13 02:08:16;;;;;;;11.85;9.20;;;;;;;17.97;100.00;100419.06;5058571;28;20040;-79
2023/06/13 02:10:43;;;;;;;10.25;8.38;;;;;;;17.93;100.00;100412.47;5054514;28;20482;-78
2023/06/13 02:13:09;;;;;;;11.63;10.15;;;;;;;17.90;100.00;100410.19;5060763;28;20089;-82
2023/06/13 02:15:35;;;;;;;11.38;10.20;;;;;;;17.90;100.00;100407.50;5069402;28;20485;-83
2023/06/13 02:18:02;;;;;;;11.20;10.10;;;;;;;17.91;100.00;100409.16;5060862;28;20029;-78
2023/06/13 02:20:28;;;;;;;13.80;10.32;;;;;;;17.94;100.00;100406.94;5054471;28;20143;-79
2023/06/13 02:22:54;;;;;;;16.70;10.32;;;;;;;17.94;100.00;100411.44;5055433;28;20111;-81
2023/06/13 02:25:20;;;;;;;10.10;9.20;;;;;;;17.95;100.00;100410.41;5066726;28;20036;-81
2023/06/13 02:27:45;;;;;;;10.23;9.23;;;;;;;17.97;100.00;100405.72;5036227;28;20029;-79
2023/06/13 02:30:11;;;;;;;11.13;10.15;;;;;;;17.95;100.00;100415.75;5035062;28;20082;-78
2023/06/13 02:32:39;;;;;;;11.15;9.73;;;;;;;17.92;100.00;100408.97;5050620;28;20402;-79
2023/06/13 02:35:07;;;;;;;10.43;9.38;;;;;;;17.91;100.00;100409.16;5059418;28;20512;-79
2023/06/13 02:37:34;;;;;;;10.55;9.07;;;;;;;17.79;100.00;100404.34;5052579;28;20132;-79
2023/06/13 02:40:00;;;;;;;10.45;8.25;;;;;;;17.72;100.00;100412.31;5032473;28;20036;-79
2023/06/13 02:42:29;;;;;;;9.00;8.15;;;;;;;17.68;100.00;100412.88;5037120;28;20032;-79
2023/06/13 02:44:55;;;;;;;9.65;7.90;;;;;;;17.64;100.00;100412.44;5042298;28;20036;-78
2023/06/13 02:47:22;;;;;;;9.63;8.02;;;;;;;17.66;100.00;100409.59;5039288;28;20040;-79
2023/06/13 02:49:49;;;;;;;8.65;7.85;;;;;;;17.71;100.00;100416.00;5058646;28;20116;-78
2023/06/13 02:52:16;;;;;;;9.02;8.25;;;;;;;17.75;100.00;100410.25;5055874;28;20035;-78
2023/06/13 02:54:42;;;;;;;8.23;7.50;;;;;;;17.72;100.00;100406.97;5062808;28;20047;-78
2023/06/13 02:57:11;;;;;;;8.63;7.75;;;;;;;17.72;100.00;100400.78;5066211;28;20083;-79
2023/06/13 02:59:36;;;;;;;9.88;7.15;;;;;;;17.78;100.00;100407.19;5042336;28;20043;-79
2023/06/13 03:02:02;;;;;;;8.32;7.53;;;;;;;17.78;100.00;100404.53;5045407;28;20405;-81
2023/06/13 03:04:28;;;;;;;7.93;7.10;;;;;;;17.74;100.00;100398.75;5065827;28;20078;-81
2023/06/13 03:06:55;;;;;;;7.57;6.88;;;;;;;17.73;100.00;100405.94;5049910;28;20037;-79
2023/06/13 03:09:22;;;;;;;8.98;8.02;;;;;;;17.75;100.00;100395.06;5032291;28;20024;-79
2023/06/13 03:11:48;;;;;;;8.48;7.68;;;;;;;17.80;100.00;100397.16;5075766;28;20624;-79
2023/06/13 03:14:16;;;;;;;10.35;7.25;;;;;;;17.82;100.00;100397.78;5066042;28;20055;-80
2023/06/13 03:16:43;;;;;;;9.52;8.18;;;;;;;17.78;100.00;100397.34;5053169;28;20024;-79
2023/06/13 03:19:08;;;;;;;8.45;7.45;;;;;;;17.73;100.00;100392.59;5048743;28;20072;-79
2023/06/13 03:21:35;;;;;;;9.32;7.90;;;;;;;17.72;100.00;100390.94;5031351;28;20024;-79
2023/06/13 03:24:01;;;;;;;10.98;6.78;;;;;;;17.72;100.00;100395.44;5071868;28;20380;-81
2023/06/13 03:26:38;;;;;;;12.35;7.70;;;;;;;17.69;100.00;100393.16;5047787;28;20035;-82
2023/06/13 03:29:07;;;;;;;10.88;8.15;;;;;;;17.63;100.00;100394.75;5037354;28;20461;-78
2023/06/13 03:31:33;;;;;;;8.90;7.82;;;;;;;17.56;100.00;100393.88;5064259;28;20033;-79
2023/06/13 03:33:59;;;;;;;9.45;8.65;;;;;;;17.48;100.00;100394.81;5044589;28;20028;-79
2023/06/13 03:36:26;;;;;;;11.55;9.38;;;;;;;17.50;100.00;100397.31;5055800;28;20036;-79
2023/06/13 03:38:54;;;;;;;11.18;9.35;;;;;;;17.48;100.00;100398.34;5031860;28;20048;-79
2023/06/13 03:41:20;;;;;;;9.40;8.38;;;;;;;17.52;100.00;100389.94;5048117;28;20150;-79
2023/06/13 03:43:46;;;;;;;9.32;8.35;;;;;;;17.55;100.00;100395.69;5044827;28;20235;-78
2023/06/13 03:46:12;;;;;;;9.75;8.77;;;;;;;17.60;100.00;100392.44;5038291;28;20473;-79
2023/06/13 03:48:38;;;;;;;8.63;7.68;;;;;;;17.64;100.00;100395.56;5044492;28;20043;-80
2023/06/13 03:51:04;;;;;;;10.07;7.63;;;;;;;17.65;100.00;100387.38;5081145;28;20033;-79
2023/06/13 03:53:29;;;;;;;9.52;7.38;;;;;;;17.65;100.00;100392.72;5052115;28;20078;-78
2023/06/13 03:55:55;;;;;;;12.93;8.43;;;;;;;17.65;100.00;100391.88;5063262;28;20028;-79
2023/06/13 03:58:22;;;;;;;9.30;7.53;;;;;;;17.63;100.00;100386.72;5096956;28;20060;-79
2023/06/13 04:00:48;;;;;;;10.70;7.35;;;;;;;17.61;100.00;100397.59;5058338;28;20118;-79
2023/06/13 04:03:14;;;;;;;8.90;8.00;;;;;;;17.59;100.00;100393.47;5057373;28;20035;-79
2023/06/13 04:05:40;;;;;;;8.50;7.78;;;;;;;17.60;100.00;100389.78;5101078;28;20024;-78
2023/06/13 04:08:07;;;;;;;10.55;7.47;;;;;;;17.59;100.00;100397.00;5050563;28;20027;-79
2023/06/13 04:10:33;;;;;;;11.82;7.53;;;;;;;17.64;100.00;100390.22;5079902;28;20035;-79
2023/06/13 04:12:59;;;;;;;18.02;8.60;;;;;;;17.63;100.00;100386.72;5073299;28;20036;-78
2023/06/13 04:15:25;;;;;;;9.55;7.82;;;;;;;17.63;100.00;100394.75;5088536;28;20051;-79
2023/06/13 04:17:52;;;;;;;8.85;7.40;;;;;;;17.65;100.00;100395.38;5045462;28;20109;-79
2023/06/13 04:20:21;;;;;;;10.43;8.13;;;;;;;17.63;100.00;100397.41;5075791;28;20040;-79
2023/06/13 04:22:48;;;;;;;7.38;6.63;;;;;;;17.62;100.00;100401.13;5072539;28;20107;-78
2023/06/13 04:25:15;;;;;;;7.80;7.10;;;;;;;17.65;100.00;100400.72;5071380;28;20044;-79
2023/06/13 04:27:43;;;;;;;17.80;7.78;;;;;;;17.65;100.00;100403.41;5084778;28;20355;-79
2023/06/13 04:30:10;;;;;;;7.75;6.88;;;;;;;17.66;100.00;100414.94;5054604;28;20043;-79
2023/06/13 04:32:39;;;;;;;9.80;7.75;;;;;;;17.66;100.00;100414.94;5068135;28;20032;-79
2023/06/13 04:35:05;;;;;;;7.32;6.60;;;;;;;17.64;100.00;100420.47;5075374;28;20020;-78
2023/06/13 04:37:31;;;;;;;9.25;8.00;;;;;;;17.66;100.00;100425.63;5053591;28;20039;-79
2023/06/13 04:39:57;;;;;;;11.18;7.47;;;;;;;17.65;100.00;100418.59;5082669;28;20034;-79
2023/06/13 04:42:27;;;;;;;8.10;7.32;;;;;;;17.63;100.00;100424.13;5085930;28;20028;-78
2023/06/13 04:44:55;;;;;;;8.88;7.15;;;;;;;17.58;100.00;100422.03;5064472;28;20035;-79
2023/06/13 04:47:33;;;;;;;8.32;6.70;;;;;;;17.57;100.00;100431.09;5098584;28;20114;-79
2023/06/13 04:49:59;;;;;;;8.30;7.30;;;;;;;17.44;100.00;100430.97;5064191;28;20082;-79
2023/06/13 04:52:32;;;;;;;9.40;7.85;;;;;;;17.39;100.00;100439.53;5049922;28;20023;-78
2023/06/13 04:55:01;;;;;;;12.88;9.20;;;;;;;17.35;100.00;100444.44;5082133;28;20385;-79
2023/06/13 04:57:27;;;;;;;8.95;7.75;;;;;;;17.36;100.00;100442.59;5079979;28;20040;-78
2023/06/13 04:59:55;;;;;;;13.52;10.98;;;;;;;17.38;100.00;100445.91;5096953;28;20031;-79
2023/06/13 05:02:22;;;;;;;12.95;9.65;;;;;;;17.36;100.00;100451.44;5065337;28;20028;-79
2023/06/13 05:04:48;;;;;;;13.38;11.43;;;;;;;17.37;100.00;100452.28;5063501;28;20484;-79
2023/06/13 05:07:16;;;;;;;13.18;11.82;;;;;;;17.38;100.00;100448.56;5093757;28;20535;-79
2023/06/13 05:09:43;;;;;;;17.00;13.70;;;;;;;17.40;100.00;100448.38;5080082;28;20039;-79
2023/06/13 05:12:10;;;;;;;17.15;13.45;;;;;;;17.38;100.00;100455.75;5061250;28;20043;-79
2023/06/13 05:14:37;;;;;;;14.73;13.13;;;;;;;17.36;100.00;100447.94;5043345;28;20037;-78
2023/06/13 05:17:05;;;;;;;17.88;14.45;;;;;;;17.33;100.00;100449.16;5051900;28;20616;-82
2023/06/13 05:19:33;;;;;;;16.70;14.55;;;;;;;17.33;100.00;100451.81;5066049;28;20028;-81
2023/06/13 05:22:02;;;;;;;20.42;16.80;;;;;;;17.31;100.00;100451.16;5079269;28;20512;-79
2023/06/13 05:24:28;;;;;;;18.40;16.55;;;;;;;17.32;100.00;100449.34;5072841;28;20046;-79
2023/06/13 05:26:54;;;;;;;18.98;16.38;;;;;;;17.29;100.00;100460.41;5059659;28;20035;-79
2023/06/13 05:29:20;;;;;;;18.10;16.20;;;;;;;17.26;100.00;100452.75;5073732;28;20430;-79
2023/06/13 05:31:46;;;;;;;20.58;17.15;;;;;;;17.25;100.00;100451.13;5066668;28;20043;-79
2023/06/13 05:34:11;;;;;;;21.25;18.10;;;;;;;17.18;100.00;100448.38;5082804;28;20067;-78
2023/06/13 05:36:37;;;;;;;20.40;18.23;;;;;;;17.18;100.00;100467.91;5069861;28;20505;-81
2023/06/13 05:39:03;;;;;;;19.98;18.00;;;;;;;17.16;100.00;100455.72;5047107;28;20025;-82
2023/06/13 05:41:28;;;;;;;20.92;18.10;;;;;;;17.15;100.00;100468.28;5067736;28;20040;-82
2023/06/13 05:43:54;;;;;;;20.50;18.40;;;;;;;17.14;100.00;100479.94;5075092;28;20104;-79
2023/06/13 05:46:20;;;;;;;20.90;18.70;;;;;;;17.17;100.00;100478.78;5059583;28;20494;-79
2023/06/13 05:48:46;;;;;;;22.77;17.48;;;;;;;17.19;100.00;100472.22;5065244;28;20024;-79
2023/06/13 05:51:11;;;;;;;23.38;18.30;;;;;;;17.14;100.00;100471.94;5054808;28;20126;-78
2023/06/13 05:53:37;;;;;;;22.77;18.02;;;;;;;17.16;100.00;100477.94;5058863;28;20109;-79
2023/06/13 05:56:03;;;;;;;23.38;18.08;;;;;;;17.15;100.00;100478.97;5075530;28;20499;-78
2023/06/13 05:58:29;;;;;;;22.48;19.00;;;;;;;17.15;100.00;100475.44;5081921;28;20051;-79
2023/06/13 06:00:57;;;;;;;21.98;19.63;;;;;;;17.15;100.00;100472.78;5085952;28;20432;-79
2023/06/13 06:03:23;;;;;;;24.55;20.35;;;;;;;17.11;100.00;100466.97;5081749;28;20071;-81
2023/06/13 06:05:49;;;;;;;22.98;19.90;;;;;;;17.14;100.00;100465.78;5073129;28;20059;-82
2023/06/13 06:08:15;;;;;;;22.85;19.95;;;;;;;17.13;100.00;100466.78;5050996;28;20038;-82
2023/06/13 06:10:40;;;;;;;23.10;20.48;;;;;;;17.13;100.00;100470.28;5084562;28;20031;-82
2023/06/13 06:13:06;;;;;;;23.52;20.67;;;;;;;17.13;100.00;100472.13;5092022;28;20043;-79
2023/06/13 06:15:32;;;;;;;24.02;19.85;;;;;;;17.12;100.00;100471.28;5054025;28;20039;-79
2023/06/13 06:17:58;;;;;;;25.17;20.42;;;;;;;17.21;100.00;100478.22;5085715;28;20032;-79
2023/06/13 06:20:23;;;;;;;24.63;20.05;;;;;;;17.30;100.00;100475.41;5089275;28;20032;-78
2023/06/13 06:22:49;;;;;;;22.20;19.90;;;;;;;17.38;100.00;100479.78;5071294;28;20553;-79
2023/06/13 06:25:19;;;;;;;23.35;19.33;;;;;;;17.47;100.00;100476.81;5097834;28;20620;-79
2023/06/13 06:27:49;;;;;;;22.05;19.30;;;;;;;17.55;100.00;100469.72;5096155;28;20481;-79
2023/06/13 06:30:15;;;;;;;22.27;19.13;;;;;;;17.58;100.00;100470.16;5091341;28;20512;-79
2023/06/13 06:32:41;;;;;;;23.88;19.63;;;;;;;17.61;100.00;100472.44;5055973;28;20130;-78
2023/06/13 06:35:08;;;;;;;24.35;20.10;;;;;;;17.61;100.00;100471.63;5086207;28;20047;-78
2023/06/13 06:37:34;;;;;;;22.90;19.20;;;;;;;17.61;100.00;100468.97;5073209;28;20047;-79
2023/06/13 06:40:00;;;;;;;21.50;18.77;;;;;;;17.63;100.00;100466.91;5064854;28;20039;-79
2023/06/13 06:42:26;;;;;;;21.00;18.75;;;;;;;17.65;100.00;100475.56;5109822;28;20043;-78
2023/06/13 06:44:58;;;;;;;24.10;18.75;;;;;;;17.72;100.00;100479.16;5069499;28;20041;-78
2023/06/13 06:47:23;;;;;;;22.27;19.45;;;;;;;17.82;100.00;100478.00;5070864;28;20032;-80
2023/06/13 06:49:49;;;;;;;20.65;18.48;;;;;;;17.91;100.00;100479.53;5056421;28;20559;-79
2023/06/13 06:52:15;;;;;;;24.98;19.13;;;;;;;18.06;100.00;100473.25;5018684;28;20102;-79
2023/06/13 06:54:41;;;;;;;19.75;17.65;;;;;;;18.07;100.00;100470.41;5098912;27;20031;-79
2023/06/13 06:57:07;;;;;;;20.55;17.70;;;;;;;18.13;100.00;100468.81;5069079;28;20043;-81
2023/06/13 06:59:32;;;;;;;20.90;18.58;;;;;;;18.25;100.00;100474.44;5102565;27;20382;-81
2023/06/13 07:01:58;;;;;;;25.75;19.20;;;;;;;18.30;100.00;100468.53;5074574;28;20028;-81
2023/06/13 07:04:24;;;;;;;24.63;19.85;;;;;;;18.30;100.00;100471.22;5066480;28;20489;-81
2023/06/13 07:06:50;;;;;;;22.23;18.80;;;;;;;18.30;100.00;100472.00;5052312;28;20085;-79
2023/06/13 07:09:16;;;;;;;25.27;19.92;;;;;;;18.26;100.00;100465.41;5082206;28;20028;-79
2023/06/13 07:11:42;;;;;;;22.65;18.90;;;;;;;18.31;100.00;100463.00;5092466;28;20054;-81
2023/06/13 07:14:08;;;;;;;21.70;19.50;;;;;;;18.37;100.00;100468.56;5059396;28;20126;-82
2023/06/13 07:16:33;;;;;;;23.90;20.05;;;;;;;18.40;100.00;100466.31;5062484;28;20039;-81
2023/06/13 07:18:59;;;;;;;22.55;19.60;;;;;;;18.47;100.00;100467.19;5088787;28;20063;-78
2023/06/13 07:21:25;;;;;;;22.17;19.80;;;;;;;18.59;100.00;100475.50;5086570;28;20056;-79
2023/06/13 07:23:52;;;;;;;26.25;18.63;;;;;;;18.87;100.00;100479.16;5068679;28;20176;-78
2023/06/13 07:26:17;;;;;;;22.17;19.02;;;;;;;19.08;100.00;100472.00;5072858;28;20039;-78
2023/06/13 07:28:43;;;;;;;21.45;19.25;;;;;;;19.32;100.00;100465.31;5090293;28;20080;-78
2023/06/13 07:31:09;;;;;;;21.10;18.95;;;;;;;19.54;100.00;100470.50;5072571;28;20600;-78
2023/06/13 07:33:35;;;;;;;22.27;18.05;;;;;;;19.82;100.00;100474.06;5093844;28;20030;-80
2023/06/13 07:36:01;;;;;;;22.27;18.88;;;;;;;19.99;100.00;100471.81;5055845;28;20035;-79
2023/06/13 07:38:27;;;;;;;22.85;18.35;;;;;;;20.12;100.00;100462.13;5072567;28;20107;-79
2023/06/13 07:40:52;;;;;;;21.92;19.40;;;;;;;20.19;100.00;100469.13;5069427;28;20567;-79
2023/06/13 07:43:18;;;;;;;21.70;19.48;;;;;;;20.29;100.00;100476.75;5072153;28;20032;-79
2023/06/13 07:45:46;;;;;;;25.00;19.23;;;;;;;20.42;100.00;100480.44;5105305;28;20024;-78
2023/06/13 07:48:12;;;;;;;22.25;19.38;;;;;;;20.55;100.00;100479.59;5092734;28;20719;-79
2023/06/13 07:50:38;;;;;;;19.70;17.70;;;;;;;20.47;100.00;100485.19;5067215;28;20481;-79
2023/06/13 07:53:04;;;;;;;21.45;18.65;;;;;;;20.33;100.00;100483.38;5085356;28;20121;-77
2023/06/13 07:55:30;;;;;;;23.80;19.15;;;;;;;20.13;100.00;100483.38;5108863;28;20503;-79
2023/06/13 07:57:56;;;;;;;26.15;19.75;;;;;;;20.06;100.00;100488.78;5091587;28;20043;-78
2023/06/13 08:00:22;;;;;;;21.88;19.10;;;;;;;20.07;100.00;100477.00;5110967;28;20034;-78
2023/06/13 08:02:48;;;;;;;23.65;20.85;;;;;;;20.04;100.00;100473.88;5073488;28;20039;-79
2023/06/13 08:05:15;;;;;;;22.73;19.85;;;;;;;19.97;100.00;100476.56;5088000;28;20444;-78
2023/06/13 08:07:41;;;;;;;22.20;19.83;;;;;;;19.94;100.00;100483.16;5072415;28;20031;-80
2023/06/13 08:10:08;;;;;;;24.83;20.40;;;;;;;19.91;100.00;100483.56;5075566;28;20043;-79
2023/06/13 08:12:34;;;;;;;21.35;19.15;;;;;;;19.92;100.00;100476.34;5042596;28;20636;-79
2023/06/13 08:15:00;;;;;;;23.05;20.63;;;;;;;19.96;100.00;100491.81;5071824;28;20036;-78
2023/06/13 08:17:26;;;;;;;23.73;20.70;;;;;;;19.96;100.00;100488.31;5094924;28;20051;-79
2023/06/13 08:19:52;;;;;;;24.80;20.70;;;;;;;20.02;100.00;100481.31;5081587;28;20035;-79
2023/06/13 08:22:18;;;;;;;23.52;19.77;;;;;;;20.01;100.00;100485.00;5090064;28;20508;-79
2023/06/13 08:24:45;;;;;;;23.23;20.27;;;;;;;20.00;100.00;100480.69;5093864;28;20082;-79
2023/06/13 08:27:15;;;;;;;21.70;19.42;;;;;;;20.03;100.00;100486.50;5084939;28;20067;-79
2023/06/13 08:29:41;;;;;;;22.58;20.17;;;;;;;20.01;100.00;100488.53;5075638;28;20143;-80
2023/06/13 08:32:07;;;;;;;22.33;19.15;;;;;;;20.03;100.00;100482.97;5111943;28;20488;-79
2023/06/13 08:34:34;;;;;;;21.42;18.88;;;;;;;20.04;100.00;100485.47;5089595;28;20037;-80
2023/06/13 08:37:00;;;;;;;21.40;19.30;;;;;;;20.07;100.00;100477.00;5080937;28;20467;-79
2023/06/13 08:39:26;;;;;;;22.23;18.92;;;;;;;20.16;100.00;100477.59;5092854;28;20749;-81
2023/06/13 08:41:53;;;;;;;20.85;18.67;;;;;;;20.32;100.00;100470.16;5083708;28;20043;-80
2023/06/13 08:44:20;;;;;;;21.15;18.95;;;;;;;20.42;100.00;100475.09;5096739;28;20089;-79
2023/06/13 08:46:46;;;;;;;20.40;18.23;;;;;;;20.56;100.00;100479.41;5090901;28;20024;-80
2023/06/13 08:49:12;;;;;;;20.88;18.27;;;;;;;20.56;100.00;100479.41;5070076;28;20034;-79
2023/06/13 08:51:38;;;;;;;24.52;19.38;;;;;;;20.62;100.00;100480.44;5081136;28;20036;-80
2023/06/13 08:54:05;;;;;;;22.00;19.20;;;;;;;20.74;100.00;100493.19;5098005;28;20562;-79
2023/06/13 08:56:40;;;;;;;21.77;19.48;;;;;;;20.94;100.00;100485.91;5081530;28;20055;-80
2023/06/13 08:59:23;;;;;;;;;;;;;;;20.94;100.00;100487.81;5089115;28;20560;-80
2023/06/13 09:01:49;;;;;;;23.08;18.17;;;;;;;21.12;100.00;100479.03;5081537;28;19916;-78
2023/06/13 09:04:17;;;;;;;20.23;18.15;;;;;;;21.13;100.00;100491.44;5106588;28;20511;-78
2023/06/13 09:06:45;;;;;;;20.48;18.27;;;;;;;21.13;100.00;100486.06;5106469;28;20030;-80
2023/06/13 09:09:12;;;;;;;21.77;19.50;;;;;;;21.10;100.00;100482.97;5091416;28;20030;-78
2023/06/13 09:11:38;;;;;;;20.77;18.40;;;;;;;21.00;100.00;100489.63;5106174;27;20062;-78
2023/06/13 09:14:06;;;;;;;19.95;17.95;;;;;;;20.97;100.00;100479.31;5066355;28;20027;-79
2023/06/13 09:16:32;;;;;;;22.80;19.73;;;;;;;20.97;100.00;100481.16;5084994;28;20028;-78
2023/06/13 09:18:59;;;;;;;22.63;20.05;;;;;;;20.96;100.00;100485.72;5081766;28;20051;-78
2023/06/13 09:21:25;;;;;;;23.17;19.83;;;;;;;20.96;100.00;100482.22;5079298;28;20471;-78
2023/06/13 09:23:54;;;;;;;20.10;17.90;;;;;;;21.07;100.00;100478.88;5096983;28;20508;-80
2023/06/13 09:26:20;;;;;;;21.80;18.08;;;;;;;21.07;100.00;100474.28;5074899;28;20480;-79
2023/06/13 09:28:49;;;;;;;21.77;19.55;;;;;;;21.07;100.00;100478.88;5099590;28;20362;-78
2023/06/13 09:31:14;;;;;;;20.13;18.13;;;;;;;21.07;100.00;100466.22;5087592;28;20042;-78
2023/06/13 09:33:43;;;;;;;20.88;18.85;;;;;;;21.16;100.00;100471.38;5085496;28;20028;-81
2023/06/13 09:36:09;;;;;;;21.17;18.92;;;;;;;21.08;100.00;100477.81;5081748;28;20657;-80
2023/06/13 09:38:40;;;;;;;21.60;18.58;;;;;;;21.15;100.00;100475.09;5073004;28;20079;-80
2023/06/13 09:41:19;;;;;;;21.05;18.88;;;;;;;21.16;100.00;100471.38;5095443;28;20036;-80
2023/06/13 09:43:45;;;;;;;21.10;18.98;;;;;;;21.21;100.00;100476.94;5091691;28;20441;-78
2023/06/13 09:46:13;;;;;;;21.58;18.92;;;;;;;21.21;100.00;100471.56;5085945;28;20058;-79
2023/06/13 09:48:43;;;;;;;22.25;18.20;;;;;;;21.19;100.00;100469.09;5093638;28;20036;-80
2023/06/13 09:51:11;;;;;;;21.70;19.42;;;;;;;21.18;100.00;100467.41;5098963;28;20032;-80
2023/06/13 09:53:37;;;;;;;20.55;18.27;;;;;;;21.24;100.00;100471.13;5095070;28;20078;-80
2023/06/13 09:56:03;;;;;;;24.20;18.90;;;;;;;21.21;100.00;100465.34;5096087;28;20036;-80
2023/06/13 09:58:29;;;;;;;19.42;17.63;;;;;;;21.26;100.00;100470.91;5094302;28;20032;-78
2023/06/13 10:00:58;;;;;;;21.00;18.77;;;;;;;21.33;100.00;100469.00;5063092;28;20193;-80
2023/06/13 10:03:27;;;;;;;20.73;18.45;;;;;;;21.39;100.00;100476.19;5080682;28;20150;-80
2023/06/13 10:05:53;;;;;;;20.83;18.73;;;;;;;21.41;100.00;100476.81;5093131;28;20047;-80
2023/06/13 10:08:19;;;;;;;21.30;19.15;;;;;;;21.47;100.00;100480.50;5063645;28;20032;-79
2023/06/13 10:10:45;;;;;;;21.17;18.85;;;;;;;21.52;100.00;100474.47;5083837;28;20067;-80
2023/06/13 10:13:18;;;;;;;19.13;17.25;;;;;;;21.64;100.00;100469.22;5085490;28;20028;-79
2023/06/13 10:15:50;;;;;;;18.95;16.77;;;;;;;21.69;100.00;100475.59;5086553;28;20046;-79
2023/06/13 10:18:20;;;;;;;18.65;16.95;;;;;;;21.84;100.00;100470.97;5056609;28;20033;-79
2023/06/13 10:20:48;;;;;;;22.25;17.48;;;;;;;21.90;100.00;100464.69;5088365;28;20465;-79
2023/06/13 10:23:20;;;;;;;18.52;16.80;;;;;;;22.01;100.00;100466.69;5086364;28;20119;-79
2023/06/13 10:25:54;;;;;;;20.25;18.15;;;;;;;22.08;100.00;100468.47;5087885;28;20024;-79
2023/06/13 10:29:06;;;;;;;19.52;17.63;;;;;;;22.06;100.00;100455.25;5058991;27;20098;-80
2023/06/13 10:31:52;;;;;;;19.73;17.70;;;;;;;22.13;100.00;100456.03;5023731;28;20044;-80
2023/06/13 10:34:26;;;;;;;19.05;16.60;;;;;;;22.11;100.00;100451.88;5104513;28;20053;-79
2023/06/13 10:37:31;;;;;;;19.70;15.98;;;;;;;22.15;100.00;100451.22;5090266;28;20552;-81
2023/06/13 10:40:38;;;;;;;19.10;17.15;;;;;;;22.44;100.00;100448.03;5068881;28;20454;-80
2023/06/13 10:43:11;;;;;;;18.60;16.60;;;;;;;22.59;100.00;100461.19;5084536;28;20042;-79
2023/06/13 10:45:39;;;;;;;18.35;16.55;;;;;;;22.70;100.00;100450.69;5089566;28;20031;-81
2023/06/13 10:48:06;;;;;;;23.10;17.50;;;;;;;22.78;100.00;100464.69;5090551;28;20030;-80
2023/06/13 10:50:40;;;;;;;19.23;17.27;;;;;;;22.79;100.00;100460.13;5073775;28;20040;-80
2023/06/13 10:53:24;;;;;;;19.33;17.23;;;;;;;22.76;100.00;100453.31;5108885;28;20024;-79
2023/06/13 10:55:50;;;;;;;19.25;17.30;;;;;;;22.63;100.00;100454.28;5084155;28;20059;-80
2023/06/13 10:58:16;;;;;;;18.85;17.15;;;;;;;22.49;100.00;100461.66;5082217;28;20040;-81
2023/06/13 11:00:43;;;;;;;18.75;16.85;;;;;;;22.38;100.00;100451.63;5089553;28;20106;-81
2023/06/13 11:03:11;;;;;;;18.35;16.20;;;;;;;22.40;100.00;100455.75;5105951;28;20043;-80
2023/06/13 11:05:48;;;;;;;17.20;15.60;;;;;;;22.55;100.00;100459.97;5096258;28;20038;-80
2023/06/13 11:08:16;;;;;;;19.33;17.23;;;;;;;22.69;100.00;100449.88;5094725;28;20031;-78